• Join FlightAware (Why Join?)
  • Login
  • US Flag 
05:57AM EDT


 

Airport Tracker/Info


-or-


 

Live Flight TrackerFlight Track Log ✈ CSC8977 ✈ 21-Jul-2014 ✈ ZUUU / CTU - RCSS / TSA

Flight Track Log - Related Links

Times and Time Zones

All times are in EDT time to prevent confusion due to time zone crossing. See the CSC8977 flight status page for this flight to view local times or setup timezone preferences in your user account.

Time Position Orientation Groundspeed Altitude Reporting Facility
EDT Latitude Longitude Course Direction KTS MPH feet Rate Location/Type
01:55AM 30.3327 104.9781 105° East  Level Estimated
01:56AM 30.3049 105.0924 106° East  Level Estimated
01:57AM 30.2770 105.2066 106° East  Level Estimated
01:58AM 30.2490 105.3207 106° East  Level Estimated
01:59AM 30.2209 105.4347 106° East  Level Estimated
02:00AM 30.1927 105.5487 106° East  Level Estimated
02:01AM 30.1644 105.6626 106° East  Level Estimated
02:02AM 30.1360 105.7764 106° East  Level Estimated
02:03AM 30.1075 105.8902 106° East  Level Estimated
02:04AM 30.0788 106.0039 106° East  Level Estimated
02:05AM 30.0501 106.1176 106° East  Level Estimated
02:06AM 30.0214 106.2312 106° East  Level Estimated
02:07AM 29.9925 106.3447 106° East  Level Estimated
02:08AM 29.9635 106.4581 106° East  Level Estimated
02:09AM 29.9344 106.5715 106° East  Level Estimated
02:10AM 29.9052 106.6848 107° East  Level Estimated
02:11AM 29.8759 106.7981 107° East  Level Estimated
02:12AM 29.8465 106.9113 107° East  Level Estimated
02:13AM 29.8171 107.0244 107° East  Level Estimated
02:14AM 29.7875 107.1375 107° East  Level Estimated
02:15AM 29.7578 107.2504 107° East  Level Estimated
02:16AM 29.7281 107.3634 107° East  Level Estimated
02:17AM 29.6982 107.4762 107° East  Level Estimated
02:18AM 29.6682 107.5890 107° East  Level Estimated
02:19AM 29.6382 107.7017 107° East  Level Estimated
02:20AM 29.6081 107.8144 107° East  Level Estimated
02:21AM 29.5778 107.9269 107° East  Level Estimated
02:22AM 29.5475 108.0395 107° East  Level Estimated
02:23AM 29.5170 108.1519 107° East  Level Estimated
02:24AM 29.4865 108.2643 107° East  Level Estimated
02:25AM 29.4559 108.3766 107° East  Level Estimated
02:26AM 29.4252 108.4888 107° East  Level Estimated
02:27AM 29.3944 108.6010 107° East  Level Estimated
02:28AM 29.3635 108.7131 108° East  Level Estimated
02:29AM 29.3325 108.8252 108° East  Level Estimated
02:30AM 29.3014 108.9371 108° East  Level Estimated
02:31AM 29.2702 109.0490 108° East  Level Estimated
02:32AM 29.2390 109.1609 108° East  Level Estimated
02:33AM 29.2076 109.2726 108° East  Level Estimated
02:34AM 29.1761 109.3843 108° East  Level Estimated
02:35AM 29.1446 109.4960 108° East  Level Estimated
02:36AM 29.1129 109.6075 108° East  Level Estimated
02:37AM 29.0812 109.7190 108° East  Level Estimated
02:38AM 29.0494 109.8305 108° East  Level Estimated
02:39AM 29.0174 109.9418 108° East  Level Estimated
02:40AM 28.9854 110.0531 108° East  Level Estimated
02:41AM 28.9533 110.1643 108° East  Level Estimated
02:42AM 28.9211 110.2755 108° East  Level Estimated
02:43AM 28.8888 110.3865 108° East  Level Estimated
02:44AM 28.8565 110.4975 108° East  Level Estimated
02:45AM 28.8240 110.6085 108° East  Level Estimated
02:46AM 28.7914 110.7194 109° East  Level Estimated
02:47AM 28.7588 110.8301 109° East  Level Estimated
02:48AM 28.7260 110.9409 109° East  Level Estimated
02:49AM 28.6932 111.0516 109° East  Level Estimated
02:50AM 28.6603 111.1621 109° East  Level Estimated
02:51AM 28.6273 111.2727 109° East  Level Estimated
02:52AM 28.5942 111.3831 109° East  Level Estimated
02:53AM 28.5610 111.4935 109° East  Level Estimated
02:54AM 28.5277 111.6038 109° East  Level Estimated
02:55AM 28.4943 111.7141 109° East  Level Estimated
02:56AM 28.4609 111.8242 109° East  Level Estimated
02:57AM 28.4273 111.9343 109° East  Level Estimated
02:58AM 28.3937 112.0444 109° East  Level Estimated
02:59AM 28.3600 112.1544 109° East  Level Estimated
03:00AM 28.3262 112.2642 109° East  Level Estimated
03:01AM 28.2923 112.3741 109° East  Level Estimated
03:02AM 28.2583 112.4838 109° East  Level Estimated
03:03AM 28.2242 112.5935 109° East  Level Estimated
03:04AM 28.1900 112.7031 109° East  Level Estimated
03:05AM 28.1558 112.8127 110° East  Level Estimated
03:06AM 28.1215 112.9221 110° East  Level Estimated
03:07AM 28.0870 113.0315 110° East  Level Estimated
03:08AM 28.0525 113.1409 110° East  Level Estimated
03:09AM 28.0179 113.2502 110° East  Level Estimated
03:10AM 27.9832 113.3594 110° East  Level Estimated
03:11AM 27.9485 113.4685 110° East  Level Estimated
03:12AM 27.9136 113.5775 110° East  Level Estimated
03:13AM 27.8787 113.6865 110° East  Level Estimated
03:14AM 27.8437 113.7954 110° East  Level Estimated
03:15AM 27.8085 113.9043 110° East  Level Estimated
03:16AM 27.7733 114.0130 110° East  Level Estimated
03:17AM 27.7381 114.1217 110° East  Level Estimated
03:18AM 27.7027 114.2304 110° East  Level Estimated
03:19AM 27.6672 114.3389 110° East  Level Estimated
03:20AM 27.6317 114.4474 110° East  Level Estimated
03:21AM 27.5961 114.5558 110° East  Level Estimated
03:22AM 27.5604 114.6642 110° East  Level Estimated
03:23AM 27.5246 114.7725 110° East  Level Estimated
03:24AM 27.4887 114.8807 110° East  Level Estimated
03:25AM 27.4528 114.9888 111° Southeast  Level Estimated
03:26AM 27.4167 115.0969 111° Southeast  Level Estimated
03:27AM 27.3806 115.2049 111° Southeast  Level Estimated
03:28AM 27.3444 115.3128 111° Southeast  Level Estimated
03:28AM 22.7032 113.5753 111° Southeast 467 537 29,100  Level FlightAware ADS-B (VHSK)
03:36AM 22.7267 114.6868 84° East 482 555 29,100  Level FlightAware ADS-B (VHSK)
03:37AM 22.7379 114.7985 84° East 480 552 29,100  Level FlightAware ADS-B (VHSK)
03:38AM 22.7610 115.0159 84° East 483 556 29,100 -240 Level FlightAware ADS-B (VHSK)
04:22AM 24.3306 120.4658 46° Northeast 345 397 18,600 -300 Descending FlightAware ADS-B
04:23AM 24.3743 120.5156 46° Northeast 325 374 17,900 -1,380 Descending FlightAware ADS-B
04:23AM 24.4074 120.5534 46° Northeast 324 373 17,000 -1,680 Descending FlightAware ADS-B
04:24AM 24.4391 120.5896 46° Northeast 322 371 16,200 -1,500 Descending FlightAware ADS-B
04:24AM 24.4718 120.6268 46° Northeast 313 360 15,400 -1,320 Descending FlightAware ADS-B
04:25AM 24.5048 120.6644 46° Northeast 306 352 14,800 -1,500 Descending FlightAware ADS-B
04:25AM 24.5428 120.7078 46° Northeast 302 348 13,700 -1,620 Descending FlightAware ADS-B
04:26AM 24.5715 120.7408 47° Northeast 297 342 13,000 -1,020 Descending FlightAware ADS-B
04:26AM 24.5973 120.7718 48° Northeast 280 322 12,700 -660 Descending FlightAware ADS-B
04:27AM 24.6274 120.8078 48° Northeast 267 307 12,300 -1,140 Descending FlightAware ADS-B
04:27AM 24.6534 120.8387 47° Northeast 265 305 11,500 -1,020 Descending FlightAware ADS-B
04:28AM 24.6780 120.8682 48° Northeast 260 299 11,300 -240 Descending FlightAware ADS-B
04:28AM 24.7031 120.8982 48° Northeast 264 304 11,300  Level FlightAware ADS-B
04:29AM 24.7282 120.9283 47° Northeast 266 306 11,300  Level FlightAware ADS-B
04:29AM 24.7498 120.9540 48° Northeast 259 298 11,300 -120 Level FlightAware ADS-B
04:30AM 24.7764 120.9859 48° Northeast 258 297 11,200 -360 Descending FlightAware ADS-B
04:31AM 24.8332 121.0539 48° Northeast 252 290 10,700 -480 Descending FlightAware ADS-B
04:32AM 24.8575 121.0830 47° Northeast 250 288 10,400 -420 Descending FlightAware ADS-B
04:32AM 24.8825 121.1129 48° Northeast 251 289 10,300 -540 Descending FlightAware ADS-B
04:33AM 24.9377 121.1793 48° Northeast 247 284 9,500 -780 Descending FlightAware ADS-B
04:35AM 24.9657 121.2552 116° Southeast 238 274 8,500 -720 Descending FlightAware ADS-B
04:36AM 24.8431 121.2247 211° Southwest 265 305 7,400 -600 Descending FlightAware ADS-B
04:37AM 25.0396 121.4661 69° East  Level Estimated
04:38AM 24.8294 121.1321 329° Northwest 265 305 6,400  Level FlightAware ADS-B
04:39AM 24.8639 121.1397 30° Northeast 244 281 6,300 -960 Descending FlightAware ADS-B
04:39AM 24.9136 121.1730 31° Northeast 243 280 5,100 -1,440 Descending FlightAware ADS-B
04:42AM 25.0020 121.3873 66° East  Level Estimated
04:43AM 25.0443 121.4903 66° East  Level Estimated